Terminal Aerodrome Forecast
Issued by NWS Jackson, MS

Home | Current Version | Previous Version | Text Only | Print | Product List | Glossary On
Versions: 1 2 3 4 5 6 7 8 9 10 11 12 13 14 15
000
FTUS44 KJAN 010540
TAFJAN
TAF
KJAN 010540Z 0106/0206 23004KT P6SM FEW030 SCT250
     FM011000 22005KT P6SM BKN025
     FM011500 23011KT P6SM SCT250
     FM012200 24008KT P6SM VCTS BKN050CB
     FM020200 22004KT P6SM BKN100=

USA.gov is the U.S. government's official web portal to all federal, state and local government web resources and services.